Time;durP1;ratioP1;P1;durP2;ratioP2;P2;SDS_P1;SDS_P2;PMS_P1;PMS_P2;Temp;Humidity;BMP_temperature;BMP_pressure;BME280_temperature;BME280_humidity;BME280_pressure;Samples;Min_cycle;Max_cycle;Signal;HPM_P1;HPM_P2
2022/10/21 00:00:58;;;;;;;40.05;21.90;;;;;;;;;;5093300;28;20488;-70
2022/10/21 00:03:25;;;;;;;44.47;24.13;;;;;;;;;;5103434;28;20067;-70
2022/10/21 00:05:51;;;;;;;41.13;22.42;;;;;;;;;;5094692;28;20044;-69
2022/10/21 00:08:18;;;;;;;38.92;22.55;;;;;;;;;;5101541;27;20500;-69
2022/10/21 00:10:44;;;;;;;41.80;22.52;;;;;;;;;;5093309;28;20040;-69
2022/10/21 00:13:11;;;;;;;41.90;23.58;;;;;;;;;;5088351;28;20516;-69
2022/10/21 00:15:37;;;;;;;46.67;23.88;;;;;;;;;;5096781;27;20051;-68
2022/10/21 00:18:03;;;;;;;43.35;23.63;;;;;;;;;;5113200;27;20039;-69
2022/10/21 00:20:30;;;;;;;43.65;23.23;;;;;;;;;;5114322;27;20044;-69
2022/10/21 00:22:56;;;;;;;43.90;22.85;;;;;;;;;;5113601;28;20108;-69
2022/10/21 00:25:22;;;;;;;45.17;23.92;;;;;;;;;;5106531;27;20047;-69
2022/10/21 00:27:48;;;;;;;44.05;22.88;;;;;;;;;;5094847;28;20114;-71
2022/10/21 00:30:14;;;;;;;46.90;23.38;;;;;;;;;;5114458;27;20039;-69
2022/10/21 00:32:40;;;;;;;45.90;23.00;;;;;;;;;;5111440;28;20043;-69
2022/10/21 00:35:06;;;;;;;38.75;23.25;;;;;;;;;;5111187;27;20035;-73
2022/10/21 00:37:32;;;;;;;42.78;23.70;;;;;;;;;;5112930;28;20089;-70
2022/10/21 00:39:58;;;;;;;46.78;24.58;;;;;;;;;;5119282;27;20385;-70
2022/10/21 00:42:30;;;;;;;47.50;26.00;;;;;;;;;;5120570;27;20135;-69
2022/10/21 00:45:06;;;;;;;46.58;25.77;;;;;;;;;;5114559;27;20044;-69
2022/10/21 00:47:39;;;;;;;45.47;24.27;;;;;;;;;;5114255;28;20043;-69
2022/10/21 00:50:06;;;;;;;45.30;24.27;;;;;;;;;;5112034;27;20046;-69
2022/10/21 00:52:33;;;;;;;44.10;23.42;;;;;;;;;;5113031;28;20496;-69
2022/10/21 00:55:00;;;;;;;44.88;23.40;;;;;;;;;;5116788;27;20047;-70
2022/10/21 00:57:27;;;;;;;45.42;22.77;;;;;;;;;;5123605;27;20118;-69
2022/10/21 00:59:55;;;;;;;48.40;23.48;;;;;;;;;;5114393;27;20492;-69
2022/10/21 01:02:22;;;;;;;43.33;22.05;;;;;;;;;;5116092;27;20107;-69
2022/10/21 01:04:51;;;;;;;41.67;22.33;;;;;;;;;;5122165;27;20122;-70
2022/10/21 01:07:17;;;;;;;43.70;22.30;;;;;;;;;;5099367;27;20041;-71
2022/10/21 01:09:43;;;;;;;47.15;23.00;;;;;;;;;;5130044;27;20047;-69
2022/10/21 01:12:27;;;;;;;42.22;22.80;;;;;;;;;;5117026;27;20042;-70
2022/10/21 01:14:59;;;;;;;40.08;22.58;;;;;;;;;;5117587;27;20047;-69
2022/10/21 01:17:34;;;;;;;45.72;22.77;;;;;;;;;;5109692;28;20499;-71
2022/10/21 01:20:19;;;;;;;45.22;23.83;;;;;;;;;;5113075;27;20042;-70
2022/10/21 01:22:45;;;;;;;45.17;23.42;;;;;;;;;;5103297;27;20048;-70
2022/10/21 01:25:40;;;;;;;42.33;23.02;;;;;;;;;;5116870;27;20551;-71
2022/10/21 01:28:14;;;;;;;44.53;23.48;;;;;;;;;;5105508;27;20118;-69
2022/10/21 01:31:06;;;;;;;46.40;23.88;;;;;;;;;;5129336;27;20043;-69
2022/10/21 01:33:42;;;;;;;44.83;23.60;;;;;;;;;;5110958;27;20047;-69
2022/10/21 01:36:09;;;;;;;42.80;22.90;;;;;;;;;;5115780;27;20035;-69
2022/10/21 01:38:43;;;;;;;45.05;24.25;;;;;;;;;;5098396;27;20069;-69
2022/10/21 01:41:30;;;;;;;45.58;23.48;;;;;;;;;;5117473;27;20042;-69
2022/10/21 01:44:07;;;;;;;46.20;23.70;;;;;;;;;;5115888;27;20479;-70
2022/10/21 01:46:39;;;;;;;42.97;23.35;;;;;;;;;;5134877;27;20069;-72
2022/10/21 01:49:28;;;;;;;46.08;23.95;;;;;;;;;;5098730;27;20084;-69
2022/10/21 01:51:54;;;;;;;50.08;24.98;;;;;;;;;;5095432;28;20039;-71
2022/10/21 01:54:23;;;;;;;48.17;24.50;;;;;;;;;;5110620;27;20505;-72
2022/10/21 01:56:50;;;;;;;46.10;24.65;;;;;;;;;;5116282;27;20047;-72
2022/10/21 01:59:17;;;;;;;52.38;24.88;;;;;;;;;;5133668;27;20060;-75
2022/10/21 02:01:43;;;;;;;48.70;25.33;;;;;;;;;;5110499;27;20060;-75
2022/10/21 02:04:12;;;;;;;45.58;23.50;;;;;;;;;;5113378;27;20100;-76
2022/10/21 02:06:38;;;;;;;50.60;24.05;;;;;;;;;;5113667;27;20043;-76
2022/10/21 02:09:04;;;;;;;57.00;26.40;;;;;;;;;;5116511;27;20027;-76
2022/10/21 02:11:32;;;;;;;55.80;25.20;;;;;;;;;;5117864;27;20118;-75
2022/10/21 02:14:01;;;;;;;48.38;23.13;;;;;;;;;;5115508;27;20035;-76
2022/10/21 02:16:29;;;;;;;52.13;24.52;;;;;;;;;;5114706;27;20136;-73
2022/10/21 02:18:56;;;;;;;47.95;22.65;;;;;;;;;;5100663;27;20039;-74
2022/10/21 02:21:23;;;;;;;43.10;21.50;;;;;;;;;;5098752;27;20134;-75
2022/10/21 02:23:54;;;;;;;42.20;21.33;;;;;;;;;;5114329;27;20122;-75
2022/10/21 02:26:25;;;;;;;42.03;20.35;;;;;;;;;;5106035;28;20057;-75
2022/10/21 02:28:52;;;;;;;45.60;21.02;;;;;;;;;;5113188;27;20557;-73
2022/10/21 02:31:21;;;;;;;42.60;20.92;;;;;;;;;;5080946;28;20035;-73
2022/10/21 02:33:47;;;;;;;42.10;20.63;;;;;;;;;;5115756;27;20556;-74
2022/10/21 02:36:19;;;;;;;46.38;20.90;;;;;;;;;;5115136;27;20043;-73
2022/10/21 02:38:54;;;;;;;44.88;20.42;;;;;;;;;;5114699;27;20058;-74
2022/10/21 02:41:22;;;;;;;45.70;21.17;;;;;;;;;;5119022;28;20068;-72
2022/10/21 02:43:51;;;;;;;44.22;21.80;;;;;;;;;;5098943;28;20039;-73
2022/10/21 02:46:18;;;;;;;43.00;22.08;;;;;;;;;;5097686;28;20035;-74
2022/10/21 02:48:45;;;;;;;46.92;22.35;;;;;;;;;;5094294;28;20484;-74
2022/10/21 02:51:11;;;;;;;52.42;23.58;;;;;;;;;;5127311;27;20042;-73
2022/10/21 02:53:37;;;;;;;43.58;22.42;;;;;;;;;;5117750;27;20402;-72
2022/10/21 02:56:03;;;;;;;40.30;21.77;;;;;;;;;;5119178;28;20049;-73
2022/10/21 02:58:30;;;;;;;41.08;21.58;;;;;;;;;;5097615;28;20084;-73
2022/10/21 03:00:56;;;;;;;42.60;21.20;;;;;;;;;;5114911;28;20554;-73
2022/10/21 03:03:22;;;;;;;41.92;21.35;;;;;;;;;;5100018;27;20039;-73
2022/10/21 03:05:48;;;;;;;42.03;21.88;;;;;;;;;;5110211;28;20433;-73
2022/10/21 03:08:14;;;;;;;43.95;22.10;;;;;;;;;;5091415;28;20038;-73
2022/10/21 03:10:40;;;;;;;37.63;21.17;;;;;;;;;;5116422;27;20383;-73
2022/10/21 03:13:06;;;;;;;39.90;21.30;;;;;;;;;;5118802;28;20066;-74
2022/10/21 03:15:32;;;;;;;42.63;22.23;;;;;;;;;;5094880;28;20108;-72
2022/10/21 03:17:59;;;;;;;46.53;22.55;;;;;;;;;;5114291;28;20468;-72
2022/10/21 03:20:25;;;;;;;47.88;22.90;;;;;;;;;;5114399;28;20404;-72
2022/10/21 03:22:51;;;;;;;48.25;23.48;;;;;;;;;;5103065;28;20047;-73
2022/10/21 03:25:17;;;;;;;45.58;23.75;;;;;;;;;;5113285;28;20050;-73
2022/10/21 03:27:43;;;;;;;45.80;24.02;;;;;;;;;;5078303;28;20039;-72
2022/10/21 03:30:09;;;;;;;46.03;24.35;;;;;;;;;;5114593;28;20492;-73
2022/10/21 03:32:35;;;;;;;46.20;24.65;;;;;;;;;;5113847;28;20039;-73
2022/10/21 03:35:01;;;;;;;44.65;24.70;;;;;;;;;;5114424;27;20047;-73
2022/10/21 03:37:27;;;;;;;52.25;24.50;;;;;;;;;;5110306;28;20107;-73
2022/10/21 03:39:53;;;;;;;52.47;25.08;;;;;;;;;;5088779;28;20039;-73
2022/10/21 03:42:19;;;;;;;46.97;23.70;;;;;;;;;;5108483;28;20042;-72
2022/10/21 03:44:45;;;;;;;49.03;25.00;;;;;;;;;;5113614;28;20074;-72
2022/10/21 03:47:11;;;;;;;54.03;24.63;;;;;;;;;;5126688;27;20555;-72
2022/10/21 03:49:38;;;;;;;54.40;24.60;;;;;;;;;;5115846;27;20035;-73
2022/10/21 03:52:04;;;;;;;48.88;24.92;;;;;;;;;;5096866;28;20476;-72
2022/10/21 03:54:30;;;;;;;53.08;24.92;;;;;;;;;;5117678;27;20039;-72
2022/10/21 03:56:56;;;;;;;57.10;25.58;;;;;;;;;;5098401;28;20035;-73
2022/10/21 03:59:22;;;;;;;53.53;24.98;;;;;;;;;;5117726;27;20492;-73
2022/10/21 04:01:48;;;;;;;55.95;24.92;;;;;;;;;;5133436;27;20069;-72
2022/10/21 04:04:14;;;;;;;56.33;25.30;;;;;;;;;;5118221;27;20083;-73
2022/10/21 04:06:41;;;;;;;56.35;24.90;;;;;;;;;;5097819;27;20035;-73
2022/10/21 04:09:07;;;;;;;51.00;24.42;;;;;;;;;;5106646;27;20035;-72
2022/10/21 04:11:33;;;;;;;58.67;26.17;;;;;;;;;;5131275;27;20112;-72
2022/10/21 04:13:59;;;;;;;54.60;24.65;;;;;;;;;;5085984;27;20188;-72
2022/10/21 04:16:25;;;;;;;55.05;24.85;;;;;;;;;;5098598;28;20044;-72
2022/10/21 04:18:51;;;;;;;58.50;26.67;;;;;;;;;;5103344;27;20043;-73
2022/10/21 04:21:17;;;;;;;60.20;25.95;;;;;;;;;;5097095;28;20043;-73
2022/10/21 04:23:43;;;;;;;55.80;25.65;;;;;;;;;;5097320;27;20515;-74
2022/10/21 04:26:09;;;;;;;60.42;26.13;;;;;;;;;;5118262;27;20035;-72
2022/10/21 04:28:36;;;;;;;60.15;26.35;;;;;;;;;;5107475;27;20494;-74
2022/10/21 04:31:02;;;;;;;55.15;25.65;;;;;;;;;;5117429;27;20479;-73
2022/10/21 04:33:28;;;;;;;58.72;26.00;;;;;;;;;;5099377;27;20043;-73
2022/10/21 04:35:55;;;;;;;63.50;26.92;;;;;;;;;;5123105;27;20088;-73
2022/10/21 04:38:22;;;;;;;63.65;26.92;;;;;;;;;;5109956;27;20457;-80
2022/10/21 04:40:54;;;;;;;61.13;26.13;;;;;;;;;;5102771;27;20070;-81
2022/10/21 04:43:20;;;;;;;58.75;26.15;;;;;;;;;;5103658;27;20034;-80
2022/10/21 04:45:46;;;;;;;64.75;27.20;;;;;;;;;;5100508;27;20030;-80
2022/10/21 04:48:12;;;;;;;60.72;27.00;;;;;;;;;;5119598;27;20031;-79
2022/10/21 04:50:38;;;;;;;58.20;27.15;;;;;;;;;;5106169;27;20047;-80
2022/10/21 04:53:04;;;;;;;63.58;27.10;;;;;;;;;;5115377;27;20492;-80
2022/10/21 04:55:30;;;;;;;70.45;27.58;;;;;;;;;;5099954;27;20039;-80
2022/10/21 04:57:57;;;;;;;63.08;27.40;;;;;;;;;;5118232;27;20043;-80
2022/10/21 05:00:23;;;;;;;64.38;28.05;;;;;;;;;;5106714;27;20058;-79
2022/10/21 05:02:49;;;;;;;66.07;27.50;;;;;;;;;;5100778;27;20043;-80
2022/10/21 05:05:15;;;;;;;63.35;27.83;;;;;;;;;;5084853;28;20046;-72
2022/10/21 05:07:41;;;;;;;66.38;27.30;;;;;;;;;;5119846;27;20065;-72
2022/10/21 05:10:07;;;;;;;65.70;27.65;;;;;;;;;;5117185;27;20038;-73
2022/10/21 05:12:33;;;;;;;68.75;27.42;;;;;;;;;;5095611;28;20050;-73
2022/10/21 05:15:01;;;;;;;63.10;27.73;;;;;;;;;;5113469;28;20069;-72
2022/10/21 05:17:27;;;;;;;75.22;28.08;;;;;;;;;;5095414;28;20528;-73
2022/10/21 05:19:53;;;;;;;63.97;27.58;;;;;;;;;;5095388;28;20479;-74
2022/10/21 05:22:19;;;;;;;69.15;27.65;;;;;;;;;;5099033;28;20040;-73
2022/10/21 05:24:45;;;;;;;71.65;29.00;;;;;;;;;;5095307;28;20035;-72
2022/10/21 05:27:11;;;;;;;68.82;28.13;;;;;;;;;;5078113;27;20043;-73
2022/10/21 05:29:37;;;;;;;66.85;27.92;;;;;;;;;;5118248;27;20042;-73
2022/10/21 05:32:03;;;;;;;71.00;28.58;;;;;;;;;;5116107;27;20042;-74
2022/10/21 05:34:29;;;;;;;60.03;27.17;;;;;;;;;;5101408;27;20035;-72
2022/10/21 05:36:55;;;;;;;60.05;26.85;;;;;;;;;;5115452;27;20095;-73
2022/10/21 05:39:21;;;;;;;67.75;28.65;;;;;;;;;;5084146;27;20050;-72
2022/10/21 05:41:47;;;;;;;64.97;28.52;;;;;;;;;;5110708;27;20066;-73
2022/10/21 05:44:13;;;;;;;71.38;28.17;;;;;;;;;;5114593;27;20062;-73
2022/10/21 05:46:40;;;;;;;71.18;29.70;;;;;;;;;;5097120;27;20415;-73
2022/10/21 05:49:06;;;;;;;73.53;28.60;;;;;;;;;;5124112;27;20031;-73
2022/10/21 05:51:32;;;;;;;69.45;27.27;;;;;;;;;;5119458;27;20490;-74
2022/10/21 05:53:58;;;;;;;67.82;29.38;;;;;;;;;;5119461;27;20053;-73
2022/10/21 05:56:24;;;;;;;69.07;30.52;;;;;;;;;;5118189;27;20088;-73
2022/10/21 05:58:50;;;;;;;60.42;27.45;;;;;;;;;;5109828;27;20046;-75
2022/10/21 06:01:17;;;;;;;71.80;29.05;;;;;;;;;;5105322;27;20049;-73
2022/10/21 06:03:43;;;;;;;63.47;28.00;;;;;;;;;;5120792;27;20069;-72
2022/10/21 06:06:09;;;;;;;71.55;27.83;;;;;;;;;;5097733;27;20039;-73
2022/10/21 06:08:37;;;;;;;66.20;27.90;;;;;;;;;;5115118;27;20087;-73
2022/10/21 06:11:04;;;;;;;61.40;26.05;;;;;;;;;;5114719;27;20104;-73
2022/10/21 06:13:30;;;;;;;62.20;28.08;;;;;;;;;;5115878;27;20034;-73
2022/10/21 06:15:56;;;;;;;64.75;27.45;;;;;;;;;;5112689;27;20495;-74
2022/10/21 06:18:22;;;;;;;69.75;29.00;;;;;;;;;;5115275;27;20441;-73
2022/10/21 06:20:49;;;;;;;61.72;26.63;;;;;;;;;;5099408;27;20049;-73
2022/10/21 06:23:15;;;;;;;61.63;26.50;;;;;;;;;;5124912;27;20035;-73
2022/10/21 06:25:41;;;;;;;58.65;26.95;;;;;;;;;;5123044;27;20554;-73
2022/10/21 06:28:07;;;;;;;67.28;26.90;;;;;;;;;;5111763;27;20404;-74
2022/10/21 06:30:33;;;;;;;65.45;26.88;;;;;;;;;;5108955;28;20049;-74
2022/10/21 06:32:59;;;;;;;63.33;25.90;;;;;;;;;;5101379;28;20430;-73
2022/10/21 06:35:25;;;;;;;61.17;26.20;;;;;;;;;;5108568;27;20597;-72
2022/10/21 06:37:52;;;;;;;60.42;26.83;;;;;;;;;;5095322;27;20039;-72
2022/10/21 06:40:18;;;;;;;73.63;26.67;;;;;;;;;;5096335;28;20048;-72
2022/10/21 06:42:44;;;;;;;61.65;25.48;;;;;;;;;;5105976;27;20027;-72
2022/10/21 06:45:10;;;;;;;60.88;27.27;;;;;;;;;;5119319;27;20039;-73
2022/10/21 06:47:36;;;;;;;57.80;26.90;;;;;;;;;;5119647;28;20043;-73
2022/10/21 06:50:02;;;;;;;63.28;26.58;;;;;;;;;;5137993;27;20118;-73
2022/10/21 06:52:30;;;;;;;61.70;26.45;;;;;;;;;;5134098;27;20039;-72
2022/10/21 06:54:56;;;;;;;61.75;26.67;;;;;;;;;;5110583;27;20057;-72
2022/10/21 06:57:22;;;;;;;63.63;27.73;;;;;;;;;;5114333;28;20041;-73
2022/10/21 06:59:48;;;;;;;56.17;26.35;;;;;;;;;;5109559;28;20035;-72
2022/10/21 07:02:14;;;;;;;52.15;25.83;;;;;;;;;;5098006;28;20101;-73
2022/10/21 07:04:43;;;;;;;47.67;24.40;;;;;;;;;;5095515;27;20396;-73
2022/10/21 07:07:10;;;;;;;45.58;23.35;;;;;;;;;;5089569;27;20096;-79
2022/10/21 07:09:36;;;;;;;53.72;23.63;;;;;;;;;;5095716;28;20377;-73
2022/10/21 07:12:02;;;;;;;49.80;22.73;;;;;;;;;;5098677;28;20376;-72
2022/10/21 07:14:28;;;;;;;42.30;22.38;;;;;;;;;;5113678;28;20038;-73
2022/10/21 07:16:54;;;;;;;45.92;22.00;;;;;;;;;;5104753;28;20153;-73
2022/10/21 07:19:20;;;;;;;42.33;21.90;;;;;;;;;;5101608;27;20038;-73
2022/10/21 07:21:46;;;;;;;39.90;21.52;;;;;;;;;;5120210;27;20434;-73
2022/10/21 07:24:12;;;;;;;45.55;22.92;;;;;;;;;;5109387;28;20039;-73
2022/10/21 07:26:38;;;;;;;42.13;21.80;;;;;;;;;;5107492;27;20511;-73
2022/10/21 07:29:05;;;;;;;38.15;20.80;;;;;;;;;;5112644;27;20480;-73
2022/10/21 07:31:32;;;;;;;46.30;21.50;;;;;;;;;;5110385;27;20118;-72
2022/10/21 07:33:59;;;;;;;41.90;21.13;;;;;;;;;;5108999;27;20070;-72
2022/10/21 07:36:26;;;;;;;43.95;22.30;;;;;;;;;;5108448;27;20111;-73
2022/10/21 07:38:53;;;;;;;37.65;20.02;;;;;;;;;;5115862;27;20090;-72
2022/10/21 07:41:24;;;;;;;39.40;20.90;;;;;;;;;;5114141;27;20039;-72
2022/10/21 07:43:51;;;;;;;41.95;21.25;;;;;;;;;;5097706;27;20050;-72
2022/10/21 07:46:18;;;;;;;40.10;19.95;;;;;;;;;;5106242;27;20369;-73
2022/10/21 07:48:44;;;;;;;33.88;19.48;;;;;;;;;;5115304;27;20042;-73
2022/10/21 07:51:12;;;;;;;40.20;19.67;;;;;;;;;;5100957;27;20372;-74
2022/10/21 07:53:39;;;;;;;38.47;20.40;;;;;;;;;;5100004;27;20046;-72
2022/10/21 07:56:06;;;;;;;37.88;19.95;;;;;;;;;;5118036;27;20050;-72
2022/10/21 07:58:32;;;;;;;38.45;19.63;;;;;;;;;;5125497;27;20435;-74
2022/10/21 08:00:59;;;;;;;35.83;19.10;;;;;;;;;;5114072;27;20496;-73
2022/10/21 08:03:26;;;;;;;30.20;18.10;;;;;;;;;;5102742;27;20039;-73
2022/10/21 08:05:53;;;;;;;33.33;18.45;;;;;;;;;;5116841;27;20047;-73
2022/10/21 08:08:20;;;;;;;34.45;19.20;;;;;;;;;;5117286;27;20105;-72
2022/10/21 08:10:47;;;;;;;38.58;18.88;;;;;;;;;;5139291;27;20475;-72
2022/10/21 08:13:13;;;;;;;36.47;19.20;;;;;;;;;;5117195;27;20035;-73
2022/10/21 08:15:43;;;;;;;38.03;18.25;;;;;;;;;;5127455;27;20099;-72
2022/10/21 08:18:09;;;;;;;34.67;18.90;;;;;;;;;;5118563;27;20396;-72
2022/10/21 08:20:45;;;;;;;33.33;18.45;;;;;;;;;;5128616;27;20031;-72
2022/10/21 08:23:11;;;;;;;28.40;18.15;;;;;;;;;;5131147;27;20035;-74
2022/10/21 08:25:38;;;;;;;30.45;17.88;;;;;;;;;;5116985;27;20038;-73
2022/10/21 08:28:05;;;;;;;29.52;17.73;;;;;;;;;;5117008;27;20080;-72
2022/10/21 08:30:31;;;;;;;33.63;19.00;;;;;;;;;;5104634;27;20487;-72
2022/10/21 08:32:58;;;;;;;32.85;17.65;;;;;;;;;;5118052;27;20043;-73
2022/10/21 08:35:24;;;;;;;31.83;17.00;;;;;;;;;;5099422;27;20035;-73
2022/10/21 08:37:50;;;;;;;30.75;17.35;;;;;;;;;;5102102;27;20043;-72
2022/10/21 08:40:17;;;;;;;31.00;16.60;;;;;;;;;;5116804;27;20050;-72
2022/10/21 08:42:44;;;;;;;30.70;17.42;;;;;;;;;;5103457;27;20076;-72
2022/10/21 08:45:28;;;;;;;27.30;16.02;;;;;;;;;;5107267;28;20392;-72
2022/10/21 08:47:56;;;;;;;27.60;15.57;;;;;;;;;;5133570;27;20027;-72
2022/10/21 08:50:24;;;;;;;27.30;15.52;;;;;;;;;;5099982;27;20428;-72
2022/10/21 08:53:01;;;;;;;23.42;14.65;;;;;;;;;;5133717;27;20067;-72
2022/10/21 08:55:35;;;;;;;17.58;12.80;;;;;;;;;;5116703;27;20395;-72
2022/10/21 08:58:01;;;;;;;23.50;13.20;;;;;;;;;;5098139;27;20039;-72
2022/10/21 09:00:34;;;;;;;18.65;12.50;;;;;;;;;;5122224;27;20040;-73
2022/10/21 09:03:20;;;;;;;21.05;12.20;;;;;;;;;;5103396;27;20131;-73
2022/10/21 09:06:21;;;;;;;19.30;11.82;;;;;;;;;;5121714;27;20027;-72
2022/10/21 09:08:47;;;;;;;17.98;11.20;;;;;;;;;;5016159;28;20128;-72
2022/10/21 09:11:20;;;;;;;15.70;11.57;;;;;;;;;;5079273;28;20529;-72
2022/10/21 09:14:04;;;;;;;19.17;12.15;;;;;;;;;;5092121;27;20077;-71
2022/10/21 09:16:53;;;;;;;15.75;11.40;;;;;;;;;;5101355;28;20547;-72
2022/10/21 09:19:29;;;;;;;18.42;11.27;;;;;;;;;;5106693;27;20085;-72
2022/10/21 09:22:01;;;;;;;17.40;11.30;;;;;;;;;;5131183;27;20070;-72
2022/10/21 09:24:31;;;;;;;16.20;10.93;;;;;;;;;;5094987;28;20052;-72
2022/10/21 09:26:57;;;;;;;17.65;11.60;;;;;;;;;;5108547;27;20037;-72
2022/10/21 09:29:32;;;;;;;19.45;11.68;;;;;;;;;;5093068;28;20507;-73
2022/10/21 09:32:18;;;;;;;19.10;11.70;;;;;;;;;;5106465;27;20499;-72
2022/10/21 09:35:04;;;;;;;19.17;12.18;;;;;;;;;;5077672;28;20153;-72
2022/10/21 09:37:42;;;;;;;18.13;11.45;;;;;;;;;;5106378;27;20487;-72
2022/10/21 09:40:16;;;;;;;20.05;12.30;;;;;;;;;;5078818;28;20040;-72
2022/10/21 09:42:42;;;;;;;21.38;11.63;;;;;;;;;;5090709;28;20036;-72
2022/10/21 09:45:16;;;;;;;24.25;12.52;;;;;;;;;;5095121;28;20107;-72
2022/10/21 09:47:43;;;;;;;20.60;11.95;;;;;;;;;;5088450;27;20138;-72
2022/10/21 09:50:13;;;;;;;18.48;11.10;;;;;;;;;;5107149;28;20499;-71
2022/10/21 09:52:42;;;;;;;19.20;10.93;;;;;;;;;;5112529;28;20044;-71
2022/10/21 09:55:12;;;;;;;18.02;9.85;;;;;;;;;;5094618;28;20028;-74
2022/10/21 09:57:44;;;;;;;17.13;10.68;;;;;;;;;;5100496;27;20087;-72
2022/10/21 10:00:11;;;;;;;19.20;10.25;;;;;;;;;;5097564;27;20127;-82
2022/10/21 10:02:39;;;;;;;16.02;10.68;;;;;;;;;;5098183;28;20059;-82
2022/10/21 10:05:23;;;;;;;17.92;10.98;;;;;;;;;;5092826;28;20067;-81
2022/10/21 10:07:49;;;;;;;14.48;9.45;;;;;;;;;;5097023;28;20031;-81
2022/10/21 10:10:29;;;;;;;19.15;9.93;;;;;;;;;;5105455;28;20048;-82
2022/10/21 10:12:59;;;;;;;20.80;10.25;;;;;;;;;;5079680;28;20039;-81
2022/10/21 10:15:33;;;;;;;13.95;9.57;;;;;;;;;;5109627;27;20051;-82
2022/10/21 10:17:59;;;;;;;15.88;9.02;;;;;;;;;;5101365;28;20557;-82
2022/10/21 10:20:26;;;;;;;14.07;8.52;;;;;;;;;;5112238;27;20050;-82
2022/10/21 10:22:58;;;;;;;18.70;8.77;;;;;;;;;;5095270;28;20369;-82
2022/10/21 10:25:27;;;;;;;13.00;8.45;;;;;;;;;;5112164;27;20118;-82
2022/10/21 10:28:16;;;;;;;11.45;8.02;;;;;;;;;;5094589;28;20035;-82
2022/10/21 10:30:42;;;;;;;15.65;8.68;;;;;;;;;;5103651;28;20048;-82
2022/10/21 10:33:09;;;;;;;10.27;7.30;;;;;;;;;;5112026;28;20035;-82
2022/10/21 10:35:36;;;;;;;16.23;8.07;;;;;;;;;;5094745;28;20579;-81
2022/10/21 10:38:03;;;;;;;14.95;7.75;;;;;;;;;;5085313;27;20506;-81
2022/10/21 10:40:32;;;;;;;13.90;7.40;;;;;;;;;;5118777;27;20424;-81
2022/10/21 10:43:05;;;;;;;17.05;8.00;;;;;;;;;;5111022;28;20040;-81
2022/10/21 10:45:32;;;;;;;12.63;6.72;;;;;;;;;;5093904;28;20122;-81
2022/10/21 10:47:59;;;;;;;12.60;6.43;;;;;;;;;;5113887;28;20027;-82
2022/10/21 10:50:37;;;;;;;11.82;6.57;;;;;;;;;;5111519;28;20043;-81
2022/10/21 10:53:20;;;;;;;12.40;6.47;;;;;;;;;;5093613;28;20039;-82
2022/10/21 10:55:48;;;;;;;12.23;6.70;;;;;;;;;;5103518;28;20503;-81
2022/10/21 10:58:15;;;;;;;11.93;6.50;;;;;;;;;;5093484;28;20040;-82
2022/10/21 11:00:43;;;;;;;15.77;7.15;;;;;;;;;;5097666;27;20481;-81
2022/10/21 11:03:13;;;;;;;10.15;6.60;;;;;;;;;;5101784;27;20039;-82
2022/10/21 11:05:47;;;;;;;12.05;7.13;;;;;;;;;;5100603;28;20040;-82
2022/10/21 11:08:13;;;;;;;10.02;6.20;;;;;;;;;;5121489;27;20103;-82
2022/10/21 11:10:43;;;;;;;12.27;6.07;;;;;;;;;;5081310;28;20040;-81
2022/10/21 11:13:12;;;;;;;10.75;7.00;;;;;;;;;;5098034;27;20047;-81
2022/10/21 11:16:04;;;;;;;12.15;6.22;;;;;;;;;;5110527;27;20047;-81
2022/10/21 11:18:37;;;;;;;11.70;6.32;;;;;;;;;;5070023;27;20050;-82
2022/10/21 11:21:14;;;;;;;14.25;6.53;;;;;;;;;;5105990;27;20512;-81
2022/10/21 11:23:43;;;;;;;13.63;6.40;;;;;;;;;;5103954;27;20040;-81
2022/10/21 11:26:45;;;;;;;14.43;6.57;;;;;;;;;;5119224;27;20392;-81
2022/10/21 11:29:11;;;;;;;15.48;6.43;;;;;;;;;;5027089;28;20076;-82
2022/10/21 11:31:43;;;;;;;12.52;5.88;;;;;;;;;;5095983;27;20051;-82
2022/10/21 11:34:15;;;;;;;13.60;6.47;;;;;;;;;;5117589;27;20039;-81
2022/10/21 11:36:56;;;;;;;11.82;6.13;;;;;;;;;;5117330;27;20145;-81
2022/10/21 11:39:32;;;;;;;12.55;6.15;;;;;;;;;;5123113;27;20047;-82
2022/10/21 11:42:19;;;;;;;13.77;6.28;;;;;;;;;;5118689;27;20035;-82
2022/10/21 11:45:04;;;;;;;9.38;5.85;;;;;;;;;;5117675;27;20035;-81
2022/10/21 11:47:39;;;;;;;12.43;6.38;;;;;;;;;;5116686;27;20066;-82
2022/10/21 11:50:05;;;;;;;17.23;6.75;;;;;;;;;;5117497;27;20043;-81
2022/10/21 11:52:45;;;;;;;14.73;6.72;;;;;;;;;;5117226;27;20057;-82
2022/10/21 11:55:17;;;;;;;13.68;6.97;;;;;;;;;;5116950;27;20118;-82
2022/10/21 11:58:08;;;;;;;13.35;6.53;;;;;;;;;;5100013;27;20424;-82
2022/10/21 12:00:55;;;;;;;11.10;6.90;;;;;;;;;;5120317;27;20035;-81
2022/10/21 12:03:21;;;;;;;14.93;6.72;;;;;;;;;;5066639;28;20056;-81
2022/10/21 12:06:12;;;;;;;15.02;7.00;;;;;;;;;;5100769;27;20031;-81
2022/10/21 12:08:44;;;;;;;13.13;7.07;;;;;;;;;;5114749;27;20107;-82
2022/10/21 12:11:21;;;;;;;14.57;6.43;;;;;;;;;;5101956;27;20043;-81
2022/10/21 12:13:59;;;;;;;16.27;7.25;;;;;;;;;;5096864;28;20043;-82
2022/10/21 12:16:27;;;;;;;13.65;6.97;;;;;;;;;;5097102;28;20036;-82
2022/10/21 12:18:55;;;;;;;11.95;7.05;;;;;;;;;;5101279;28;20039;-81
2022/10/21 12:21:24;;;;;;;15.30;7.18;;;;;;;;;;5117772;27;20066;-81
2022/10/21 12:23:53;;;;;;;13.48;7.57;;;;;;;;;;5103597;27;20119;-80
2022/10/21 12:26:22;;;;;;;13.90;7.38;;;;;;;;;;5117430;27;20365;-81
2022/10/21 12:28:53;;;;;;;13.70;7.38;;;;;;;;;;5116021;27;20043;-81
2022/10/21 12:31:19;;;;;;;12.52;6.40;;;;;;;;;;5117622;27;20522;-81
2022/10/21 12:33:47;;;;;;;13.27;6.70;;;;;;;;;;5117867;27;20426;-81
2022/10/21 12:36:16;;;;;;;12.93;6.47;;;;;;;;;;5103017;27;20118;-81
2022/10/21 12:38:49;;;;;;;14.15;6.65;;;;;;;;;;5116381;27;20038;-81
2022/10/21 12:41:21;;;;;;;13.90;6.88;;;;;;;;;;5116754;27;20438;-81
2022/10/21 12:43:57;;;;;;;12.82;6.32;;;;;;;;;;5118627;27;20035;-81
2022/10/21 12:46:23;;;;;;;;;;;;;;;;;;5146589;27;20039;-81
2022/10/21 12:48:51;;;;;;;14.13;6.40;;;;;;;;;;5105860;27;19915;-80
2022/10/21 12:51:20;;;;;;;11.93;6.45;;;;;;;;;;5090262;27;20046;-81
2022/10/21 12:53:48;;;;;;;10.98;6.55;;;;;;;;;;5114978;27;20491;-81
2022/10/21 12:56:25;;;;;;;14.20;6.68;;;;;;;;;;5100102;27;20039;-81
2022/10/21 12:58:55;;;;;;;13.43;7.10;;;;;;;;;;5115649;27;20095;-82
2022/10/21 13:01:34;;;;;;;13.50;6.45;;;;;;;;;;5115482;27;20074;-81
2022/10/21 13:04:01;;;;;;;14.82;6.28;;;;;;;;;;5095768;28;20040;-81
2022/10/21 13:06:45;;;;;;;14.85;6.93;;;;;;;;;;5109512;27;20039;-81
2022/10/21 13:09:30;;;;;;;11.07;6.35;;;;;;;;;;5116239;27;20118;-81
2022/10/21 13:12:17;;;;;;;13.23;6.38;;;;;;;;;;5098871;27;20043;-81
2022/10/21 13:14:44;;;;;;;14.68;6.25;;;;;;;;;;5111850;27;20469;-81
2022/10/21 13:17:22;;;;;;;15.15;5.97;;;;;;;;;;5109253;27;20032;-80
2022/10/21 13:19:48;;;;;;;10.65;5.88;;;;;;;;;;5101579;27;20388;-81
2022/10/21 13:22:17;;;;;;;11.38;5.32;;;;;;;;;;5097488;28;20035;-81
2022/10/21 13:24:45;;;;;;;15.88;5.80;;;;;;;;;;5113027;27;20051;-81
2022/10/21 13:27:31;;;;;;;9.70;5.70;;;;;;;;;;5098870;27;20071;-81
2022/10/21 13:29:57;;;;;;;13.77;5.68;;;;;;;;;;5114355;27;20058;-81
2022/10/21 13:32:28;;;;;;;10.55;4.93;;;;;;;;;;5116845;27;20544;-82
2022/10/21 13:35:20;;;;;;;9.48;5.15;;;;;;;;;;5121377;27;20507;-81
2022/10/21 13:37:58;;;;;;;12.57;5.65;;;;;;;;;;5095456;27;20454;-81
2022/10/21 13:40:27;;;;;;;10.20;5.28;;;;;;;;;;5099522;28;20081;-81
2022/10/21 13:42:56;;;;;;;11.93;5.40;;;;;;;;;;5101062;27;20115;-80
2022/10/21 13:45:27;;;;;;;8.75;5.30;;;;;;;;;;5103255;27;20031;-81
2022/10/21 13:48:04;;;;;;;11.77;5.25;;;;;;;;;;5096600;27;20066;-81
2022/10/21 13:50:32;;;;;;;12.23;5.07;;;;;;;;;;5101793;27;20047;-80
2022/10/21 13:52:58;;;;;;;10.45;4.85;;;;;;;;;;5096995;28;20044;-81
2022/10/21 13:55:25;;;;;;;7.75;4.10;;;;;;;;;;5099599;27;20058;-80
2022/10/21 13:57:53;;;;;;;12.80;5.00;;;;;;;;;;5079866;27;20075;-80
2022/10/21 14:00:21;;;;;;;7.80;4.35;;;;;;;;;;5110344;27;20126;-81
2022/10/21 14:02:51;;;;;;;10.32;4.88;;;;;;;;;;5110464;27;20047;-81
2022/10/21 14:05:26;;;;;;;10.68;5.05;;;;;;;;;;5094780;28;20484;-81
2022/10/21 14:07:53;;;;;;;12.10;5.00;;;;;;;;;;5097993;27;20073;-81
2022/10/21 14:10:19;;;;;;;11.18;5.53;;;;;;;;;;5122021;27;20035;-81
2022/10/21 14:12:45;;;;;;;10.00;4.97;;;;;;;;;;5097295;27;20047;-81
2022/10/21 14:15:20;;;;;;;7.82;5.00;;;;;;;;;;5112517;27;20408;-78
2022/10/21 14:17:57;;;;;;;12.37;5.23;;;;;;;;;;5114886;27;20047;-81
2022/10/21 14:20:29;;;;;;;10.80;5.20;;;;;;;;;;5116960;27;20043;-81
2022/10/21 14:22:55;;;;;;;9.00;5.30;;;;;;;;;;5114678;27;20035;-81
2022/10/21 14:25:21;;;;;;;8.52;5.68;;;;;;;;;;5114566;28;20088;-82
2022/10/21 14:27:47;;;;;;;8.90;5.18;;;;;;;;;;5134684;27;20391;-82
2022/10/21 14:30:22;;;;;;;9.20;5.47;;;;;;;;;;5114545;27;20046;-81
2022/10/21 14:32:48;;;;;;;12.75;5.60;;;;;;;;;;5114208;27;20035;-81
2022/10/21 14:35:15;;;;;;;9.32;5.55;;;;;;;;;;5114367;28;20039;-81